createdAt,value
2023-04-05T00:02:14.045Z,51.43
2023-04-05T00:04:50.215Z,51.43
2023-04-05T00:07:17.456Z,51.43
2023-04-05T00:09:43.971Z,52.05
2023-04-05T00:12:10.631Z,51.60
2023-04-05T00:14:37.099Z,52.65
2023-04-05T00:17:04.217Z,52.66
2023-04-05T00:19:33.699Z,52.01
2023-04-05T00:22:00.775Z,51.74
2023-04-05T00:24:29.424Z,51.39
2023-04-05T00:26:56.727Z,51.43
2023-04-05T00:29:23.427Z,52.10
2023-04-05T00:31:50.247Z,52.42
2023-04-05T00:34:16.775Z,53.13
2023-04-05T00:36:43.329Z,53.13
2023-04-05T00:39:09.794Z,52.90
2023-04-05T00:41:36.662Z,52.94
2023-04-05T00:44:03.869Z,52.85
2023-04-05T00:46:34.382Z,52.91
2023-04-05T00:49:00.896Z,52.92
2023-04-05T00:51:27.659Z,53.23
2023-04-05T00:53:55.056Z,53.28
2023-04-05T00:56:22.906Z,53.24
2023-04-05T00:58:53.152Z,53.69
2023-04-05T01:01:22.593Z,53.91
2023-04-05T01:03:55.375Z,54.03
2023-04-05T01:06:48.103Z,53.80
2023-04-05T01:09:45.722Z,53.62
2023-04-05T01:12:17.884Z,52.89
2023-04-05T01:14:51.868Z,52.51
2023-04-05T01:17:28.004Z,52.20
2023-04-05T01:20:03.842Z,52.51
2023-04-05T01:22:37.908Z,51.94
2023-04-05T01:25:45.087Z,53.23
2023-04-05T01:28:58.878Z,52.65
2023-04-05T01:31:46.181Z,53.25
2023-04-05T01:34:31.112Z,52.99
2023-04-05T01:37:07.402Z,52.47
2023-04-05T01:39:36.953Z,52.69
2023-04-05T01:42:04.298Z,53.05
2023-04-05T01:44:31.280Z,53.95
2023-04-05T01:46:57.815Z,54.07
2023-04-05T01:49:24.769Z,53.35
2023-04-05T01:51:51.305Z,52.92
2023-04-05T01:54:17.739Z,53.30
2023-04-05T01:56:44.600Z,53.35
2023-04-05T01:59:11.157Z,53.82
2023-04-05T02:01:37.662Z,53.95
2023-04-05T02:04:04.195Z,53.65
2023-04-05T02:06:31.977Z,53.54
2023-04-05T02:08:58.433Z,53.40
2023-04-05T02:11:24.977Z,53.39
2023-04-05T02:13:51.488Z,53.77
2023-04-05T02:16:18.398Z,54.37
2023-04-05T02:18:50.659Z,54.61
2023-04-05T02:21:17.151Z,54.32
2023-04-05T02:23:44.022Z,54.41
2023-04-05T02:26:10.732Z,54.12
2023-04-05T02:28:37.244Z,54.60
2023-04-05T02:31:12.515Z,54.66
2023-04-05T02:33:40.221Z,54.65
2023-04-05T02:36:09.462Z,54.71
2023-04-05T02:38:36.175Z,54.68
2023-04-05T02:41:03.185Z,54.27
2023-04-05T02:43:29.966Z,54.25
2023-04-05T02:45:56.445Z,54.40
2023-04-05T02:48:22.968Z,54.14
2023-04-05T02:50:51.433Z,54.35
2023-04-05T02:53:18.852Z,54.08
2023-04-05T02:55:56.783Z,53.84
2023-04-05T02:58:28.382Z,53.74
2023-04-05T03:00:56.070Z,54.18
2023-04-05T03:03:23.482Z,54.66
2023-04-05T03:06:10.757Z,54.96
2023-04-05T03:08:39.354Z,54.84
2023-04-05T03:11:06.773Z,55.09
2023-04-05T03:13:37.021Z,55.05
2023-04-05T03:16:13.778Z,54.80
2023-04-05T03:18:40.133Z,55.78
2023-04-05T03:21:11.982Z,54.72
2023-04-05T03:23:38.548Z,55.18
2023-04-05T03:26:05.188Z,55.50
2023-04-05T03:28:34.583Z,55.29
2023-04-05T03:31:05.851Z,54.94
2023-04-05T03:33:37.816Z,54.79
2023-04-05T03:36:06.164Z,54.85
2023-04-05T03:38:32.660Z,54.63
2023-04-05T03:40:59.190Z,54.85
2023-04-05T03:43:25.671Z,54.76
2023-04-05T03:45:52.640Z,54.95
2023-04-05T03:48:21.898Z,54.88
2023-04-05T03:50:48.480Z,54.98
2023-04-05T03:53:19.983Z,55.26
2023-04-05T03:55:50.229Z,55.29
2023-04-05T03:58:17.315Z,55.56
2023-04-05T04:00:43.866Z,56.06
2023-04-05T04:03:10.565Z,55.87
2023-04-05T04:05:39.327Z,55.99
2023-04-05T04:08:06.448Z,56.18
2023-04-05T04:10:34.396Z,56.38
2023-04-05T04:13:00.844Z,56.59
2023-04-05T04:15:27.550Z,56.77
2023-04-05T04:17:54.157Z,57.02
2023-04-05T04:20:21.234Z,56.97
2023-04-05T04:22:49.864Z,57.04
2023-04-05T04:25:18.645Z,56.45
2023-04-05T04:27:46.488Z,56.29
2023-04-05T04:30:18.601Z,56.35
2023-04-05T04:33:06.634Z,56.76
2023-04-05T04:35:40.874Z,57.58
2023-04-05T04:38:08.390Z,57.46
2023-04-05T04:40:41.075Z,56.96
2023-04-05T04:43:17.049Z,57.02
2023-04-05T04:45:47.190Z,57.40
2023-04-05T04:48:16.411Z,58.22
2023-04-05T04:50:44.143Z,58.42
2023-04-05T04:53:11.905Z,58.02
2023-04-05T04:55:44.497Z,57.60
2023-04-05T04:58:19.553Z,57.25
2023-04-05T05:00:46.790Z,57.56
2023-04-05T05:03:14.041Z,57.69
2023-04-05T05:05:47.207Z,57.88
2023-04-05T05:08:14.556Z,57.79
2023-04-05T05:10:41.531Z,57.89
2023-04-05T05:13:08.497Z,58.04
2023-04-05T05:15:35.054Z,58.13
2023-04-05T05:18:01.605Z,57.77
2023-04-05T05:20:28.476Z,58.05
2023-04-05T05:22:56.085Z,57.88
2023-04-05T05:25:22.873Z,58.09
2023-04-05T05:27:53.647Z,58.39
2023-04-05T05:30:20.981Z,58.09
2023-04-05T05:32:55.872Z,58.37
2023-04-05T05:35:22.398Z,58.39
2023-04-05T05:37:48.886Z,58.24
2023-04-05T05:40:16.218Z,58.11
2023-04-05T05:42:42.713Z,57.66
2023-04-05T05:45:10.192Z,57.40
2023-04-05T05:47:36.979Z,57.77
2023-04-05T05:50:04.224Z,57.87
2023-04-05T05:52:31.444Z,57.64
2023-04-05T05:54:57.934Z,57.60
2023-04-05T05:57:24.432Z,57.54
2023-04-05T05:59:50.960Z,57.16
2023-04-05T06:02:17.476Z,56.78
2023-04-05T06:04:44.091Z,56.75
2023-04-05T06:07:11.027Z,56.92
2023-04-05T06:09:37.934Z,57.17
2023-04-05T06:12:04.506Z,57.05
2023-04-05T06:14:31.225Z,57.00
2023-04-05T06:16:59.287Z,57.12
2023-04-05T06:19:27.013Z,57.10
2023-04-05T06:21:54.915Z,57.08
2023-04-05T06:24:21.461Z,57.03
2023-04-05T06:26:47.894Z,57.31
2023-04-05T06:29:14.426Z,57.59
2023-04-05T06:31:42.552Z,57.33
2023-04-05T06:34:09.243Z,57.53
2023-04-05T06:36:35.872Z,57.34
2023-04-05T06:39:02.299Z,57.67
2023-04-05T06:41:28.781Z,57.13
2023-04-05T06:43:56.301Z,56.58
2023-04-05T06:46:23.338Z,56.63
2023-04-05T06:48:50.574Z,57.34
2023-04-05T06:51:17.266Z,56.99
2023-04-05T06:53:43.924Z,56.73
2023-04-05T06:56:10.873Z,56.38
2023-04-05T06:58:37.408Z,55.93
2023-04-05T07:01:17.851Z,55.78
2023-04-05T07:03:47.459Z,55.49
2023-04-05T07:06:14.181Z,55.73
2023-04-05T07:08:40.894Z,55.42
2023-04-05T07:11:07.399Z,55.05
2023-04-05T07:13:34.050Z,54.77
2023-04-05T07:16:03.182Z,54.38
2023-04-05T07:18:30.203Z,54.53
2023-04-05T07:21:03.621Z,53.97
2023-04-05T07:23:30.844Z,53.46
2023-04-05T07:26:04.957Z,53.27
2023-04-05T07:28:36.113Z,53.52
2023-04-05T07:31:04.544Z,53.10
2023-04-05T07:33:31.505Z,53.10
2023-04-05T07:35:58.440Z,52.78
2023-04-05T07:38:26.996Z,52.73
2023-04-05T07:40:53.546Z,52.35
2023-04-05T07:43:20.123Z,52.03
2023-04-05T07:45:46.789Z,51.84
2023-04-05T07:48:13.264Z,51.75
2023-04-05T07:50:41.010Z,51.43
2023-04-05T07:53:08.208Z,51.45
2023-04-05T07:55:38.570Z,51.02
2023-04-05T07:58:05.235Z,51.19
2023-04-05T08:00:31.917Z,50.84
2023-04-05T08:03:01.845Z,50.68
2023-04-05T08:05:29.238Z,50.27
2023-04-05T08:07:57.993Z,49.90
2023-04-05T08:10:25.650Z,49.51
2023-04-05T08:12:52.272Z,49.04
2023-04-05T08:15:18.822Z,49.27
2023-04-05T08:17:45.360Z,48.81
2023-04-05T08:20:12.597Z,48.16
2023-04-05T08:22:42.175Z,47.73
2023-04-05T08:25:09.266Z,47.85
2023-04-05T08:27:35.766Z,47.40
2023-04-05T08:30:02.504Z,47.32
2023-04-05T08:32:32.403Z,47.12
2023-04-05T08:35:04.784Z,46.92
2023-04-05T08:37:37.130Z,46.47
2023-04-05T08:40:04.878Z,46.45
2023-04-05T08:42:51.579Z,45.80
2023-04-05T08:45:20.720Z,46.09
2023-04-05T08:47:52.229Z,45.78
2023-04-05T08:50:19.012Z,45.95
2023-04-05T08:52:50.216Z,45.45
2023-04-05T08:55:17.252Z,45.69
2023-04-05T08:57:51.178Z,45.58
2023-04-05T09:00:19.311Z,45.43
2023-04-05T09:02:53.195Z,44.95
2023-04-05T09:05:22.425Z,45.16
2023-04-05T09:07:50.346Z,45.19
2023-04-05T09:10:20.214Z,43.96
2023-04-05T09:12:47.773Z,43.66
2023-04-05T09:15:16.468Z,43.84
2023-04-05T09:17:44.025Z,43.23
2023-04-05T09:20:10.642Z,43.30
2023-04-05T09:22:47.188Z,42.88
2023-04-05T09:25:31.903Z,43.28
2023-04-05T09:27:59.876Z,43.03
2023-04-05T09:30:30.110Z,42.54
2023-04-05T09:32:57.533Z,42.48
2023-04-05T09:35:31.005Z,42.01
2023-04-05T09:38:09.730Z,41.49
2023-04-05T09:40:45.332Z,41.30
2023-04-05T09:43:14.785Z,41.69
2023-04-05T09:45:42.992Z,42.01
2023-04-05T09:48:10.151Z,41.69
2023-04-05T09:50:36.897Z,41.55
2023-04-05T09:53:16.743Z,40.58
2023-04-05T09:55:43.900Z,41.33
2023-04-05T09:58:18.862Z,40.63
2023-04-05T10:00:59.948Z,40.84
2023-04-05T10:03:48.171Z,38.93
2023-04-05T10:06:17.116Z,40.38
2023-04-05T10:08:46.910Z,40.26
2023-04-05T10:11:18.391Z,39.85
2023-04-05T10:13:47.940Z,39.36
2023-04-05T10:16:21.679Z,39.65
2023-04-05T10:18:52.374Z,39.99
2023-04-05T10:21:26.147Z,39.70
2023-04-05T10:24:09.143Z,37.70
2023-04-05T10:27:20.370Z,37.62
2023-04-05T10:30:05.725Z,39.30
2023-04-05T10:32:52.952Z,39.01
2023-04-05T10:35:50.205Z,37.84
2023-04-05T10:38:29.001Z,39.10
2023-04-05T10:41:12.740Z,39.24
2023-04-05T10:43:41.184Z,39.15
2023-04-05T10:46:08.763Z,38.90
2023-04-05T10:48:53.571Z,37.99
2023-04-05T10:51:24.168Z,38.67
2023-04-05T10:53:52.313Z,38.31
2023-04-05T10:56:22.027Z,38.04
2023-04-05T10:58:51.522Z,37.63
2023-04-05T11:01:20.623Z,37.63
2023-04-05T11:03:54.906Z,36.96
2023-04-05T11:06:32.529Z,37.62
2023-04-05T11:09:10.720Z,37.18
2023-04-05T11:11:43.929Z,36.98
2023-04-05T11:14:36.762Z,35.71
2023-04-05T11:17:04.441Z,37.10
2023-04-05T11:19:42.889Z,35.68
2023-04-05T11:22:10.346Z,36.16
2023-04-05T11:24:58.234Z,34.74
2023-04-05T11:27:28.055Z,36.15
2023-04-05T11:29:56.482Z,36.17
2023-04-05T11:32:24.056Z,35.32
2023-04-05T11:35:05.482Z,34.00
2023-04-05T11:37:55.225Z,34.37
2023-04-05T11:40:35.671Z,35.21
2023-04-05T11:43:10.683Z,35.92
2023-04-05T11:45:39.636Z,35.93
2023-04-05T11:48:10.933Z,36.27
2023-04-05T11:50:41.582Z,35.75
2023-04-05T11:53:16.505Z,34.73
2023-04-05T11:55:48.003Z,36.18
2023-04-05T11:58:25.756Z,34.29
2023-04-05T12:01:04.904Z,35.40
2023-04-05T12:03:31.825Z,35.73
2023-04-05T12:06:04.436Z,34.47
2023-04-05T12:08:49.807Z,35.17
2023-04-05T12:11:24.499Z,35.84
2023-04-05T12:13:59.357Z,35.40
2023-04-05T12:16:26.502Z,35.58
2023-04-05T12:18:58.583Z,35.30
2023-04-05T12:21:26.505Z,35.10
2023-04-05T12:23:54.301Z,34.93
2023-04-05T12:26:22.242Z,35.53
2023-04-05T12:28:57.124Z,34.39
2023-04-05T12:31:46.306Z,34.68
2023-04-05T12:34:14.874Z,34.30
2023-04-05T12:36:46.397Z,34.32
2023-04-05T12:39:13.011Z,35.05
2023-04-05T12:41:39.807Z,34.80
2023-04-05T12:44:15.956Z,33.45
2023-04-05T12:46:47.451Z,33.98
2023-04-05T12:49:18.930Z,34.00
2023-04-05T12:51:47.356Z,34.16
2023-04-05T12:54:24.106Z,34.26
2023-04-05T12:56:52.963Z,34.24
2023-04-05T12:59:19.801Z,34.08
2023-04-05T13:01:46.805Z,34.38
2023-04-05T13:04:16.617Z,34.83
2023-04-05T13:06:47.064Z,35.13
2023-04-05T13:09:13.772Z,34.80
2023-04-05T13:11:40.373Z,35.20
2023-04-05T13:14:07.443Z,34.74
2023-04-05T13:16:34.055Z,34.47
2023-04-05T13:19:00.687Z,33.67
2023-04-05T13:21:27.256Z,33.93
2023-04-05T13:23:53.701Z,33.57
2023-04-05T13:26:20.974Z,33.26
2023-04-05T13:28:47.459Z,33.31
2023-04-05T13:31:15.833Z,33.00
2023-04-05T13:33:43.375Z,33.05
2023-04-05T13:36:12.237Z,33.60
2023-04-05T13:38:38.911Z,33.57
2023-04-05T13:41:05.724Z,33.72
2023-04-05T13:43:32.252Z,33.91
2023-04-05T14:19:02.914Z,30.77
2023-04-05T14:21:29.515Z,33.93
2023-04-05T14:23:57.783Z,34.07
2023-04-05T14:26:28.332Z,32.88
2023-04-05T14:28:55.048Z,33.72
2023-04-05T14:31:25.065Z,33.13
2023-04-05T14:33:52.371Z,33.13
2023-04-05T14:36:19.042Z,32.81
2023-04-05T14:38:45.728Z,32.32
2023-04-05T14:41:12.430Z,32.30
2023-04-05T14:43:39.202Z,32.47
2023-04-05T14:46:06.224Z,32.56
2023-04-05T14:48:33.974Z,31.99
2023-04-05T14:51:00.515Z,32.16
2023-04-05T14:53:27.216Z,32.54
2023-04-05T14:55:53.826Z,32.68
2023-04-05T14:58:20.578Z,32.29
2023-04-05T15:00:49.936Z,32.42
2023-04-05T15:03:19.537Z,32.41
2023-04-05T15:05:47.627Z,32.13
2023-04-05T15:08:15.503Z,32.27
2023-04-05T15:10:43.154Z,31.78
2023-04-05T15:13:10.488Z,31.37
2023-04-05T15:15:37.714Z,31.46
2023-04-05T15:18:05.627Z,31.31
2023-04-05T15:20:32.932Z,30.88
2023-04-05T15:23:00.363Z,30.65
2023-04-05T15:25:26.922Z,31.55
2023-04-05T15:27:54.721Z,31.06
2023-04-05T15:30:22.007Z,31.20
2023-04-05T15:32:48.597Z,31.51
2023-04-05T15:35:15.452Z,31.78
2023-04-05T15:37:42.112Z,31.97
2023-04-05T15:40:09.568Z,31.59
2023-04-05T15:42:36.245Z,31.47
2023-04-05T15:45:03.008Z,31.77
2023-04-05T15:47:29.606Z,31.65
2023-04-05T15:49:56.232Z,31.70
2023-04-05T15:52:22.741Z,30.85
2023-04-05T15:54:49.244Z,30.39
2023-04-05T15:57:15.960Z,30.49
2023-04-05T15:59:42.611Z,30.44
2023-04-05T16:02:09.715Z,30.58
2023-04-05T16:04:36.400Z,31.01
2023-04-05T16:07:02.992Z,30.78
2023-04-05T16:09:29.979Z,30.43
2023-04-05T16:11:56.852Z,30.83
2023-04-05T16:14:23.468Z,30.36
2023-04-05T16:16:54.118Z,30.06
2023-04-05T16:19:21.804Z,30.13
2023-04-05T16:21:49.433Z,29.99
2023-04-05T16:24:16.140Z,29.98
2023-04-05T16:26:42.794Z,29.86
2023-04-05T16:29:09.377Z,29.51
2023-04-05T16:31:36.596Z,29.50
2023-04-05T16:34:03.473Z,29.76
2023-04-05T16:36:30.077Z,29.79
2023-04-05T16:38:56.626Z,29.53
2023-04-05T16:41:23.161Z,29.67
2023-04-05T16:43:51.062Z,29.48
2023-04-05T16:46:18.476Z,28.75
2023-04-05T16:48:45.420Z,28.86
2023-04-05T16:51:12.848Z,29.29
2023-04-05T16:53:39.481Z,29.40
2023-04-05T16:56:06.268Z,30.06
2023-04-05T16:58:32.836Z,29.59
2023-04-05T17:01:00.307Z,29.28
2023-04-05T17:03:27.315Z,29.24
2023-04-05T17:05:53.994Z,29.43
2023-04-05T17:08:20.590Z,29.54
2023-04-05T17:10:47.422Z,29.49
2023-04-05T17:13:14.910Z,30.48
2023-04-05T17:15:41.878Z,30.63
2023-04-05T17:18:08.672Z,30.62
2023-04-05T17:20:35.327Z,30.40
2023-04-05T17:23:01.896Z,30.64
2023-04-05T17:25:28.468Z,31.63
2023-04-05T17:27:55.168Z,32.31
2023-04-05T17:30:21.725Z,32.61
2023-04-05T17:32:48.325Z,32.82
2023-04-05T17:35:15.389Z,32.57
2023-04-05T17:37:41.923Z,32.34
2023-04-05T17:40:09.111Z,33.11
2023-04-05T17:42:35.767Z,33.39
2023-04-05T17:45:02.628Z,33.90
2023-04-05T17:47:29.260Z,34.10
2023-04-05T17:49:55.896Z,34.27
2023-04-05T17:52:22.759Z,34.87
2023-04-05T17:54:49.789Z,34.67
2023-04-05T17:57:16.535Z,34.51
2023-04-05T17:59:43.406Z,34.98
2023-04-05T18:02:13.414Z,35.24
2023-04-05T18:04:41.070Z,35.66
2023-04-05T18:07:08.300Z,36.05
2023-04-05T18:09:37.421Z,36.12
2023-04-05T18:12:05.413Z,35.91
2023-04-05T18:14:32.168Z,36.11
2023-04-05T18:16:59.312Z,35.86
2023-04-05T18:19:25.960Z,35.94
2023-04-05T18:21:52.544Z,36.23
2023-04-05T18:24:19.654Z,37.04
2023-04-05T18:26:46.701Z,37.29
2023-04-05T18:29:13.330Z,37.39
2023-04-05T18:31:39.984Z,37.94
2023-04-05T18:34:06.755Z,38.38
2023-04-05T18:36:33.474Z,38.59
2023-04-05T18:39:03.618Z,38.40
2023-04-05T18:41:30.547Z,38.97
2023-04-05T18:43:59.181Z,38.85
2023-04-05T18:46:26.431Z,38.95
2023-04-05T18:48:56.276Z,39.93
2023-04-05T18:51:24.549Z,39.65
2023-04-05T18:53:51.362Z,40.22
2023-04-05T18:56:18.190Z,39.82
2023-04-05T18:58:45.660Z,39.79
2023-04-05T19:01:16.928Z,40.12
2023-04-05T19:03:45.054Z,40.30
2023-04-05T19:06:12.672Z,40.11
2023-04-05T19:08:39.850Z,39.79
2023-04-05T19:11:07.503Z,40.27
2023-04-05T19:13:34.150Z,40.41
2023-04-05T19:18:27.962Z,41.21
2023-04-05T19:20:57.330Z,41.72
2023-04-05T19:23:28.759Z,42.03
2023-04-05T19:25:57.307Z,41.70
2023-04-05T19:28:25.955Z,42.20
2023-04-05T19:30:53.378Z,42.70
2023-04-05T19:33:21.712Z,42.76
2023-04-05T19:35:48.810Z,42.76
2023-04-05T19:38:15.791Z,42.48
2023-04-05T19:40:43.004Z,42.56
2023-04-05T19:43:10.228Z,42.66
2023-04-05T19:45:37.221Z,42.69
2023-04-05T19:48:46.946Z,42.64
2023-04-05T19:51:17.914Z,42.57
2023-04-05T19:53:53.646Z,43.36
2023-04-05T19:56:31.105Z,44.72
2023-04-05T19:59:09.444Z,44.72
2023-04-05T20:01:41.486Z,44.36
2023-04-05T20:04:20.593Z,44.80
2023-04-05T20:06:53.805Z,44.14
2023-04-05T20:09:26.732Z,44.30
2023-04-05T20:12:06.239Z,45.66
2023-04-05T20:14:45.883Z,45.30
2023-04-05T20:17:14.062Z,45.29
2023-04-05T20:19:57.673Z,45.08
2023-04-05T20:22:26.895Z,45.24
2023-04-05T20:24:53.562Z,45.27
2023-04-05T20:27:20.231Z,45.16
2023-04-05T20:29:46.960Z,45.26
2023-04-05T20:32:14.187Z,45.91
2023-04-05T20:34:43.794Z,46.03
2023-04-05T20:37:11.845Z,45.24
2023-04-05T20:39:38.509Z,45.65
2023-04-05T20:42:05.332Z,46.00
2023-04-05T20:44:32.035Z,45.83
2023-04-05T20:46:58.897Z,46.46
2023-04-05T20:49:26.148Z,46.91
2023-04-05T20:51:55.770Z,46.97
2023-04-05T20:54:22.682Z,46.96
2023-04-05T20:56:49.477Z,47.59
2023-04-05T20:59:16.631Z,47.76
2023-04-05T21:01:43.458Z,47.89
2023-04-05T21:04:10.624Z,48.24
2023-04-05T21:06:37.625Z,48.63
2023-04-05T21:09:04.797Z,48.57
2023-04-05T21:11:31.508Z,48.57
2023-04-05T21:13:58.212Z,48.81
2023-04-05T21:16:24.993Z,48.76
2023-04-05T21:18:51.794Z,48.86
2023-04-05T21:21:18.502Z,48.68
2023-04-05T21:23:45.451Z,49.34
2023-04-05T21:26:12.165Z,49.04
2023-04-05T21:28:38.788Z,49.69
2023-04-05T21:31:05.666Z,49.82
2023-04-05T21:33:32.365Z,49.55
2023-04-05T21:35:59.112Z,49.25
2023-04-05T21:38:25.850Z,48.88
2023-04-05T21:40:52.495Z,49.22
2023-04-05T21:43:20.865Z,49.67
2023-04-05T21:45:47.534Z,49.72
2023-04-05T21:48:14.278Z,49.50
2023-04-05T21:50:41.195Z,49.62
2023-04-05T21:53:09.637Z,49.52
2023-04-05T21:55:36.370Z,49.77
2023-04-05T21:58:03.033Z,50.08
2023-04-05T22:00:29.723Z,50.47
2023-04-05T22:02:56.493Z,50.21
2023-04-05T22:05:36.318Z,50.63
2023-04-05T22:08:05.611Z,50.37
2023-04-05T22:10:32.669Z,50.27
2023-04-05T22:12:59.321Z,50.62
2023-04-05T22:15:25.980Z,50.37
2023-04-05T22:17:52.723Z,50.17
2023-04-05T22:20:19.492Z,50.31
2023-04-05T22:22:49.090Z,50.29
2023-04-05T22:25:23.661Z,50.55
2023-04-05T22:27:50.353Z,50.98
2023-04-05T22:30:17.065Z,51.14
2023-04-05T22:32:44.298Z,51.43
2023-04-05T22:35:16.468Z,51.39
2023-04-05T22:37:43.285Z,51.75
2023-04-05T22:40:10.930Z,52.35
2023-04-05T22:42:40.076Z,52.22
2023-04-05T22:45:07.771Z,52.08
2023-04-05T22:47:42.318Z,51.73
2023-04-05T22:50:09.445Z,51.17
2023-04-05T22:52:36.326Z,51.58
2023-04-05T22:55:04.406Z,51.75
2023-04-05T22:57:35.546Z,52.13
2023-04-05T23:00:02.538Z,52.62
2023-04-05T23:02:32.118Z,52.43
2023-04-05T23:04:59.266Z,52.52
2023-04-05T23:07:26.242Z,52.89
2023-04-05T23:09:52.862Z,52.54
2023-04-05T23:12:19.524Z,53.02
2023-04-05T23:14:46.461Z,53.22
2023-04-05T23:17:13.161Z,52.84
2023-04-05T23:19:39.816Z,52.82
2023-04-05T23:22:16.511Z,52.84
2023-04-05T23:24:43.116Z,55.06
2023-04-05T23:27:09.775Z,52.88
2023-04-05T23:29:36.409Z,52.64
2023-04-05T23:32:03.140Z,52.31
2023-04-05T23:34:29.741Z,52.61
2023-04-05T23:36:56.430Z,53.05
2023-04-05T23:39:23.144Z,53.71
2023-04-05T23:41:49.784Z,53.82
2023-04-05T23:44:16.400Z,54.16
2023-04-05T23:46:43.012Z,54.24
2023-04-05T23:49:09.821Z,53.66
2023-04-05T23:51:36.541Z,53.99
2023-04-05T23:54:13.927Z,54.02
2023-04-05T23:56:51.903Z,53.85
2023-04-05T23:59:18.610Z,54.01
